map of MCB home
MCB - Airport
Location
City:  McComb, Mississippi, United States
Name:McComb/Pike County/John E Lewis Field
ICAO:KMCB
IATA:MCB
FAA LID:MCB

Details
Type:Airport (Airfield)
Use:Public/Civil
Latitude:3110'42"N (31.178444)
Longitude:9028'19"W (-90.471860)
Datum:WGS 1984
Elevation:413 ft (126 m)
Variation:0.77W (WMM2015v2 magnetic declination)
-0.09 annual change
Runways:1
Longest:5000 × 100 ft (1524 × 30.5 m), paved

Time
Time Zone:UTC-6 (DST-5)
Local Time:

Weather
METAR:KMCB 041353Z AUTO 14004KT 1/4SM FG VV002 15/14 A3001 RMK AO2 SLP159 T01500139
TAF:KMCB 041329Z 0413/0512 14004KT 1/4SM FG VV002
FM041500 17005KT 3SM BR OVC006
FM042200 19005KT P6SM VCSH OVC030
FM050200 VRB04KT 2SM BR OVC004
FM050400 VRB04KT 1/2SM FG OVC002

Related Locations
Nearby:
Farthest:CCK: 11044 mi / 17774 km
West Island (Pulau Panjang) [Cocos (Keeling) Islands], CC

Find:

   beyond  
but within

Other Information
Maps:
NOTAMs:
Links:
Sources:

  
  • flag of United States
  • flag of Mississippi
  

Sectional Chart

Flight Planning
at skyvector.com

Satellite Image

Google Maps Satellite view

 

Copyright © 2004-2019 Karl L. Swartz. All rights reserved.
The Great Circle Mapper name and logo are trademarks of the Great Circle Mapper.
All other trademarks mentioned herein belong to their respective owners.
Please see credits for attibutions and further copyright information.

  Follow gcmap on Facebook Follow gcmap on Twitter GCmap on LinkedIn

hCard Microformat

Geo Microformat